sensor_id;sensor_type;location;lat;lon;timestamp;pressure;altitude;pressure_sealevel;temperature;humidity
30554;BME280;17335;50.720;7.452;2023-03-20T00:02:04;99604.69;;;9.07;100.00
30554;BME280;17335;50.720;7.452;2023-03-20T00:04:31;99607.38;;;9.07;100.00
30554;BME280;17335;50.720;7.452;2023-03-20T00:06:57;99604.34;;;9.00;100.00
30554;BME280;17335;50.720;7.452;2023-03-20T00:09:24;99602.78;;;8.97;100.00
30554;BME280;17335;50.720;7.452;2023-03-20T00:11:54;99604.47;;;8.98;100.00
30554;BME280;17335;50.720;7.452;2023-03-20T00:14:21;99603.88;;;8.95;100.00
30554;BME280;17335;50.720;7.452;2023-03-20T00:16:50;99606.94;;;8.90;100.00
30554;BME280;17335;50.720;7.452;2023-03-20T00:19:20;99611.34;;;8.80;100.00
30554;BME280;17335;50.720;7.452;2023-03-20T00:21:49;99619.06;;;8.73;100.00
30554;BME280;17335;50.720;7.452;2023-03-20T00:24:16;99617.84;;;8.66;100.00
30554;BME280;17335;50.720;7.452;2023-03-20T00:26:44;99624.91;;;8.67;100.00
30554;BME280;17335;50.720;7.452;2023-03-20T00:29:23;99621.03;;;8.60;100.00
30554;BME280;17335;50.720;7.452;2023-03-20T00:31:52;99624.56;;;8.49;100.00
30554;BME280;17335;50.720;7.452;2023-03-20T00:34:21;99622.03;;;8.36;100.00
30554;BME280;17335;50.720;7.452;2023-03-20T00:36:49;99622.38;;;8.32;100.00
30554;BME280;17335;50.720;7.452;2023-03-20T00:39:17;99624.56;;;8.38;100.00
30554;BME280;17335;50.720;7.452;2023-03-20T00:41:53;99626.00;;;8.42;100.00
30554;BME280;17335;50.720;7.452;2023-03-20T00:46:52;99627.00;;;8.30;100.00
30554;BME280;17335;50.720;7.452;2023-03-20T00:49:22;99635.66;;;8.22;100.00
30554;BME280;17335;50.720;7.452;2023-03-20T00:51:50;99637.22;;;8.24;100.00
30554;BME280;17335;50.720;7.452;2023-03-20T00:54:16;99642.56;;;8.24;100.00
30554;BME280;17335;50.720;7.452;2023-03-20T00:57:07;99632.63;;;8.15;100.00
30554;BME280;17335;50.720;7.452;2023-03-20T00:59:40;99645.88;;;8.17;100.00
30554;BME280;17335;50.720;7.452;2023-03-20T01:02:08;99647.56;;;8.06;100.00
30554;BME280;17335;50.720;7.452;2023-03-20T01:04:39;99643.31;;;8.04;100.00
30554;BME280;17335;50.720;7.452;2023-03-20T01:07:10;99638.94;;;8.03;100.00
30554;BME280;17335;50.720;7.452;2023-03-20T01:09:37;99645.13;;;8.03;100.00
30554;BME280;17335;50.720;7.452;2023-03-20T01:12:05;99644.28;;;7.92;100.00
30554;BME280;17335;50.720;7.452;2023-03-20T01:14:33;99645.84;;;7.94;100.00
30554;BME280;17335;50.720;7.452;2023-03-20T01:17:00;99647.91;;;7.91;100.00
30554;BME280;17335;50.720;7.452;2023-03-20T01:19:26;99649.25;;;7.85;100.00
30554;BME280;17335;50.720;7.452;2023-03-20T01:21:53;99664.22;;;7.87;100.00
30554;BME280;17335;50.720;7.452;2023-03-20T01:24:20;99663.59;;;7.84;100.00
30554;BME280;17335;50.720;7.452;2023-03-20T01:26:47;99672.22;;;7.87;100.00
30554;BME280;17335;50.720;7.452;2023-03-20T01:29:19;99666.41;;;7.82;100.00
30554;BME280;17335;50.720;7.452;2023-03-20T01:31:47;99663.72;;;7.82;100.00
30554;BME280;17335;50.720;7.452;2023-03-20T01:34:15;99658.97;;;7.86;100.00
30554;BME280;17335;50.720;7.452;2023-03-20T01:36:50;99659.94;;;7.85;100.00
30554;BME280;17335;50.720;7.452;2023-03-20T01:39:29;99662.97;;;7.80;100.00
30554;BME280;17335;50.720;7.452;2023-03-20T01:41:57;99658.25;;;7.84;100.00
30554;BME280;17335;50.720;7.452;2023-03-20T01:44:32;99654.81;;;7.70;100.00
30554;BME280;17335;50.720;7.452;2023-03-20T01:47:01;99660.44;;;7.79;100.00
30554;BME280;17335;50.720;7.452;2023-03-20T01:51:56;99648.28;;;7.86;100.00
30554;BME280;17335;50.720;7.452;2023-03-20T01:54:32;99654.81;;;7.70;100.00
30554;BME280;17335;50.720;7.452;2023-03-20T01:57:15;99659.56;;;7.78;100.00
30554;BME280;17335;50.720;7.452;2023-03-20T01:59:46;99655.94;;;7.79;100.00
30554;BME280;17335;50.720;7.452;2023-03-20T02:02:19;99653.72;;;7.73;100.00
30554;BME280;17335;50.720;7.452;2023-03-20T02:04:50;99653.47;;;7.65;100.00
30554;BME280;17335;50.720;7.452;2023-03-20T02:07:19;99651.28;;;7.70;100.00
30554;BME280;17335;50.720;7.452;2023-03-20T02:09:48;99643.25;;;7.70;100.00
30554;BME280;17335;50.720;7.452;2023-03-20T02:12:15;99642.19;;;7.73;100.00
30554;BME280;17335;50.720;7.452;2023-03-20T02:14:44;99647.66;;;7.71;100.00
30554;BME280;17335;50.720;7.452;2023-03-20T02:17:13;99632.94;;;7.77;100.00
30554;BME280;17335;50.720;7.452;2023-03-20T02:29:05;99636.97;;;7.71;100.00
30554;BME280;17335;50.720;7.452;2023-03-20T02:32:08;99632.34;;;7.73;100.00
30554;BME280;17335;50.720;7.452;2023-03-20T02:35:12;99635.03;;;7.62;100.00
30554;BME280;17335;50.720;7.452;2023-03-20T02:38:24;99632.72;;;7.68;100.00
30554;BME280;17335;50.720;7.452;2023-03-20T02:43:41;99628.44;;;7.66;100.00
30554;BME280;17335;50.720;7.452;2023-03-20T02:49:08;99644.00;;;7.61;100.00
30554;BME280;17335;50.720;7.452;2023-03-20T02:51:39;99649.78;;;7.55;100.00
30554;BME280;17335;50.720;7.452;2023-03-20T02:54:33;99648.84;;;7.56;100.00
30554;BME280;17335;50.720;7.452;2023-03-20T02:57:06;99643.38;;;7.57;100.00
30554;BME280;17335;50.720;7.452;2023-03-20T02:59:53;99634.53;;;7.57;100.00
30554;BME280;17335;50.720;7.452;2023-03-20T03:02:37;99640.59;;;7.59;100.00
30554;BME280;17335;50.720;7.452;2023-03-20T03:05:12;99635.25;;;7.59;100.00
30554;BME280;17335;50.720;7.452;2023-03-20T03:07:41;99632.56;;;7.59;100.00
30554;BME280;17335;50.720;7.452;2023-03-20T03:10:14;99625.75;;;7.55;100.00
30554;BME280;17335;50.720;7.452;2023-03-20T03:12:45;99631.34;;;7.51;100.00
30554;BME280;17335;50.720;7.452;2023-03-20T03:15:26;99626.75;;;7.54;100.00
30554;BME280;17335;50.720;7.452;2023-03-20T03:17:56;99638.25;;;7.54;100.00
30554;BME280;17335;50.720;7.452;2023-03-20T03:20:28;99639.75;;;7.58;100.00
30554;BME280;17335;50.720;7.452;2023-03-20T03:22:57;99633.53;;;7.58;100.00
30554;BME280;17335;50.720;7.452;2023-03-20T03:25:27;99627.22;;;7.59;100.00
30554;BME280;17335;50.720;7.452;2023-03-20T03:28:03;99633.53;;;7.58;100.00
30554;BME280;17335;50.720;7.452;2023-03-20T03:30:35;99637.91;;;7.59;100.00
30554;BME280;17335;50.720;7.452;2023-03-20T03:33:20;99641.53;;;7.58;100.00
30554;BME280;17335;50.720;7.452;2023-03-20T03:35:48;99642.66;;;7.66;100.00
30554;BME280;17335;50.720;7.452;2023-03-20T03:38:30;99639.59;;;7.60;100.00
30554;BME280;17335;50.720;7.452;2023-03-20T03:44:02;99657.13;;;7.64;100.00
30554;BME280;17335;50.720;7.452;2023-03-20T03:49:04;99656.75;;;7.57;100.00
30554;BME280;17335;50.720;7.452;2023-03-20T03:51:35;99659.19;;;7.60;100.00
30554;BME280;17335;50.720;7.452;2023-03-20T03:54:19;99655.03;;;7.56;100.00
30554;BME280;17335;50.720;7.452;2023-03-20T03:56:49;99666.31;;;7.60;100.00
30554;BME280;17335;50.720;7.452;2023-03-20T03:59:25;99669.50;;;7.65;100.00
30554;BME280;17335;50.720;7.452;2023-03-20T04:01:54;99685.16;;;7.58;100.00
30554;BME280;17335;50.720;7.452;2023-03-20T04:04:24;99678.22;;;7.56;100.00
30554;BME280;17335;50.720;7.452;2023-03-20T04:06:52;99661.75;;;7.62;100.00
30554;BME280;17335;50.720;7.452;2023-03-20T04:09:18;99655.53;;;7.61;100.00
30554;BME280;17335;50.720;7.452;2023-03-20T04:11:48;99655.63;;;7.60;100.00
30554;BME280;17335;50.720;7.452;2023-03-20T04:14:15;99653.94;;;7.59;100.00
30554;BME280;17335;50.720;7.452;2023-03-20T04:16:41;99654.28;;;7.54;100.00
30554;BME280;17335;50.720;7.452;2023-03-20T04:19:08;99649.78;;;7.55;100.00
30554;BME280;17335;50.720;7.452;2023-03-20T04:21:34;99639.97;;;7.55;100.00
30554;BME280;17335;50.720;7.452;2023-03-20T04:24:01;99639.88;;;7.57;100.00
30554;BME280;17335;50.720;7.452;2023-03-20T04:26:28;99629.91;;;7.59;100.00
30554;BME280;17335;50.720;7.452;2023-03-20T04:28:55;99633.53;;;7.58;100.00
30554;BME280;17335;50.720;7.452;2023-03-20T04:31:22;99652.47;;;7.55;100.00
30554;BME280;17335;50.720;7.452;2023-03-20T04:33:48;99648.13;;;7.54;100.00
30554;BME280;17335;50.720;7.452;2023-03-20T04:36:15;99650.78;;;7.54;100.00
30554;BME280;17335;50.720;7.452;2023-03-20T04:38:42;99642.03;;;7.51;100.00
30554;BME280;17335;50.720;7.452;2023-03-20T04:41:09;99645.66;;;7.50;100.00
30554;BME280;17335;50.720;7.452;2023-03-20T04:43:35;99640.31;;;7.50;100.00
30554;BME280;17335;50.720;7.452;2023-03-20T04:46:02;99644.81;;;7.50;100.00
30554;BME280;17335;50.720;7.452;2023-03-20T04:48:28;99652.13;;;7.48;100.00
30554;BME280;17335;50.720;7.452;2023-03-20T04:50:55;99647.38;;;7.51;100.00
30554;BME280;17335;50.720;7.452;2023-03-20T04:53:22;99648.59;;;7.59;100.00
30554;BME280;17335;50.720;7.452;2023-03-20T04:55:52;99644.22;;;7.46;100.00
30554;BME280;17335;50.720;7.452;2023-03-20T04:58:18;99650.00;;;7.40;100.00
30554;BME280;17335;50.720;7.452;2023-03-20T05:00:45;99650.25;;;7.37;100.00
30554;BME280;17335;50.720;7.452;2023-03-20T05:03:13;99658.25;;;7.37;100.00
30554;BME280;17335;50.720;7.452;2023-03-20T05:05:39;99653.50;;;7.29;100.00
30554;BME280;17335;50.720;7.452;2023-03-20T05:08:06;99653.63;;;7.28;100.00
30554;BME280;17335;50.720;7.452;2023-03-20T05:10:32;99644.75;;;7.27;100.00
30554;BME280;17335;50.720;7.452;2023-03-20T05:12:59;99642.72;;;7.31;100.00
30554;BME280;17335;50.720;7.452;2023-03-20T05:15:27;99651.91;;;7.27;100.00
30554;BME280;17335;50.720;7.452;2023-03-20T05:17:54;99650.84;;;7.29;100.00
30554;BME280;17335;50.720;7.452;2023-03-20T05:20:20;99649.84;;;7.30;100.00
30554;BME280;17335;50.720;7.452;2023-03-20T05:22:48;99645.59;;;7.28;100.00
30554;BME280;17335;50.720;7.452;2023-03-20T05:25:16;99655.56;;;7.26;100.00
30554;BME280;17335;50.720;7.452;2023-03-20T05:27:44;99649.50;;;7.24;100.00
30554;BME280;17335;50.720;7.452;2023-03-20T05:30:12;99648.38;;;7.26;100.00
30554;BME280;17335;50.720;7.452;2023-03-20T05:32:39;99645.38;;;7.31;100.00
30554;BME280;17335;50.720;7.452;2023-03-20T05:35:07;99639.16;;;7.30;100.00
30554;BME280;17335;50.720;7.452;2023-03-20T05:37:34;99632.25;;;7.28;100.00
30554;BME280;17335;50.720;7.452;2023-03-20T05:40:00;99629.81;;;7.25;100.00
30554;BME280;17335;50.720;7.452;2023-03-20T05:42:27;99623.00;;;7.21;100.00
30554;BME280;17335;50.720;7.452;2023-03-20T05:44:54;99623.25;;;7.18;100.00
30554;BME280;17335;50.720;7.452;2023-03-20T05:47:21;99626.47;;;7.10;100.00
30554;BME280;17335;50.720;7.452;2023-03-20T05:49:51;99628.56;;;7.18;100.00
30554;BME280;17335;50.720;7.452;2023-03-20T05:52:17;99620.50;;;7.06;100.00
30554;BME280;17335;50.720;7.452;2023-03-20T05:54:44;99625.59;;;6.98;100.00
30554;BME280;17335;50.720;7.452;2023-03-20T05:57:11;99627.66;;;6.94;100.00
30554;BME280;17335;50.720;7.452;2023-03-20T05:59:37;99628.38;;;6.97;100.00
30554;BME280;17335;50.720;7.452;2023-03-20T06:02:03;99619.50;;;6.96;100.00
30554;BME280;17335;50.720;7.452;2023-03-20T06:04:30;99629.75;;;7.02;100.00
30554;BME280;17335;50.720;7.452;2023-03-20T06:06:57;99632.91;;;7.07;100.00
30554;BME280;17335;50.720;7.452;2023-03-20T06:09:24;99638.81;;;7.24;100.00
30554;BME280;17335;50.720;7.452;2023-03-20T06:11:51;99642.66;;;7.20;100.00
30554;BME280;17335;50.720;7.452;2023-03-20T06:14:17;99637.31;;;7.20;100.00
30554;BME280;17335;50.720;7.452;2023-03-20T06:16:43;99653.00;;;7.24;100.00
30554;BME280;17335;50.720;7.452;2023-03-20T06:19:10;99655.56;;;7.26;100.00
30554;BME280;17335;50.720;7.452;2023-03-20T06:21:37;99665.88;;;7.30;100.00
30554;BME280;17335;50.720;7.452;2023-03-20T06:24:03;99661.19;;;7.34;100.00
30554;BME280;17335;50.720;7.452;2023-03-20T06:26:30;99659.25;;;7.36;100.00
30554;BME280;17335;50.720;7.452;2023-03-20T06:28:58;99654.97;;;7.33;100.00
30554;BME280;17335;50.720;7.452;2023-03-20T06:31:25;99662.88;;;7.35;100.00
30554;BME280;17335;50.720;7.452;2023-03-20T06:33:51;99665.91;;;7.42;100.00
30554;BME280;17335;50.720;7.452;2023-03-20T06:36:18;99661.19;;;7.45;100.00
30554;BME280;17335;50.720;7.452;2023-03-20T06:38:44;99651.84;;;7.51;100.00
30554;BME280;17335;50.720;7.452;2023-03-20T06:41:11;99657.31;;;7.49;100.00
30554;BME280;17335;50.720;7.452;2023-03-20T06:43:53;99643.50;;;7.56;100.00
30554;BME280;17335;50.720;7.452;2023-03-20T06:46:19;99650.06;;;7.63;100.00
30554;BME280;17335;50.720;7.452;2023-03-20T06:48:47;99637.19;;;7.68;100.00
30554;BME280;17335;50.720;7.452;2023-03-20T06:51:14;99636.25;;;7.69;100.00
30554;BME280;17335;50.720;7.452;2023-03-20T06:53:40;99638.69;;;7.72;100.00
30554;BME280;17335;50.720;7.452;2023-03-20T06:56:12;99640.97;;;7.77;100.00
30554;BME280;17335;50.720;7.452;2023-03-20T06:58:38;99639.41;;;7.85;100.00
30554;BME280;17335;50.720;7.452;2023-03-20T07:01:13;99644.03;;;7.95;100.00
30554;BME280;17335;50.720;7.452;2023-03-20T07:03:42;99644.03;;;8.06;100.00
30554;BME280;17335;50.720;7.452;2023-03-20T07:06:09;99639.78;;;8.15;100.00
30554;BME280;17335;50.720;7.452;2023-03-20T07:08:36;99639.53;;;8.18;100.00
30554;BME280;17335;50.720;7.452;2023-03-20T07:11:03;99655.59;;;8.29;100.00
30554;BME280;17335;50.720;7.452;2023-03-20T07:13:30;99659.00;;;8.31;100.00
30554;BME280;17335;50.720;7.452;2023-03-20T07:16:00;99658.13;;;8.42;100.00
30554;BME280;17335;50.720;7.452;2023-03-20T07:18:30;99656.06;;;8.34;100.00
30554;BME280;17335;50.720;7.452;2023-03-20T07:21:00;99662.50;;;8.32;100.00
30554;BME280;17335;50.720;7.452;2023-03-20T07:23:28;99659.94;;;8.30;100.00
30554;BME280;17335;50.720;7.452;2023-03-20T07:25:56;99661.06;;;8.27;100.00
30554;BME280;17335;50.720;7.452;2023-03-20T07:28:23;99657.44;;;8.29;100.00
30554;BME280;17335;50.720;7.452;2023-03-20T07:30:49;99658.63;;;8.24;100.00
30554;BME280;17335;50.720;7.452;2023-03-20T07:33:16;99670.91;;;8.16;100.00
30554;BME280;17335;50.720;7.452;2023-03-20T07:35:43;99678.44;;;8.11;100.00
30554;BME280;17335;50.720;7.452;2023-03-20T07:38:10;99670.53;;;8.09;100.00
30554;BME280;17335;50.720;7.452;2023-03-20T07:40:38;99670.91;;;8.16;100.00
30554;BME280;17335;50.720;7.452;2023-03-20T07:43:05;99673.69;;;8.14;100.00
30554;BME280;17335;50.720;7.452;2023-03-20T07:45:32;99681.59;;;8.16;100.00
30554;BME280;17335;50.720;7.452;2023-03-20T07:47:58;99680.25;;;8.21;100.00
30554;BME280;17335;50.720;7.452;2023-03-20T07:50:25;99686.34;;;8.23;100.00
30554;BME280;17335;50.720;7.452;2023-03-20T07:52:52;99686.84;;;8.29;100.00
30554;BME280;17335;50.720;7.452;2023-03-20T07:55:19;99699.09;;;8.31;100.00
30554;BME280;17335;50.720;7.452;2023-03-20T07:57:47;99692.03;;;8.30;100.00
30554;BME280;17335;50.720;7.452;2023-03-20T08:00:16;99695.47;;;8.32;100.00
30554;BME280;17335;50.720;7.452;2023-03-20T08:02:42;99687.47;;;8.43;100.00
30554;BME280;17335;50.720;7.452;2023-03-20T08:05:09;99691.81;;;8.56;100.00
30554;BME280;17335;50.720;7.452;2023-03-20T08:07:36;99695.25;;;8.58;100.00
30554;BME280;17335;50.720;7.452;2023-03-20T08:10:03;99693.06;;;8.63;100.00
30554;BME280;17335;50.720;7.452;2023-03-20T08:12:30;99688.50;;;8.75;100.00
30554;BME280;17335;50.720;7.452;2023-03-20T08:14:56;99697.13;;;8.78;100.00
30554;BME280;17335;50.720;7.452;2023-03-20T08:17:23;99707.47;;;8.94;100.00
30554;BME280;17335;50.720;7.452;2023-03-20T08:19:49;99698.06;;;9.00;100.00
30554;BME280;17335;50.720;7.452;2023-03-20T08:22:16;99701.56;;;9.12;100.00
30554;BME280;17335;50.720;7.452;2023-03-20T08:24:42;99701.44;;;9.13;100.00
30554;BME280;17335;50.720;7.452;2023-03-20T08:27:08;99705.16;;;8.90;100.00
30554;BME280;17335;50.720;7.452;2023-03-20T08:29:35;99710.03;;;8.96;100.00
30554;BME280;17335;50.720;7.452;2023-03-20T08:32:02;99704.44;;;8.88;100.00
30554;BME280;17335;50.720;7.452;2023-03-20T08:34:30;99694.34;;;8.80;100.00
30554;BME280;17335;50.720;7.452;2023-03-20T08:36:57;99704.97;;;8.70;100.00
30554;BME280;17335;50.720;7.452;2023-03-20T08:39:24;99709.69;;;8.78;100.00
30554;BME280;17335;50.720;7.452;2023-03-20T08:41:50;99701.50;;;8.91;100.00
30554;BME280;17335;50.720;7.452;2023-03-20T08:44:17;99707.72;;;8.91;100.00
30554;BME280;17335;50.720;7.452;2023-03-20T08:46:43;99708.19;;;8.85;100.00
30554;BME280;17335;50.720;7.452;2023-03-20T08:49:11;99700.28;;;8.83;100.00
30554;BME280;17335;50.720;7.452;2023-03-20T08:51:38;99707.84;;;8.78;100.00
30554;BME280;17335;50.720;7.452;2023-03-20T08:54:04;99704.56;;;8.86;100.00
30554;BME280;17335;50.720;7.452;2023-03-20T08:56:31;99701.25;;;8.94;100.00
30554;BME280;17335;50.720;7.452;2023-03-20T08:58:57;99702.97;;;8.95;100.00
30554;BME280;17335;50.720;7.452;2023-03-20T09:01:24;99716.94;;;9.10;100.00
30554;BME280;17335;50.720;7.452;2023-03-20T09:04:07;99718.13;;;9.17;100.00
30554;BME280;17335;50.720;7.452;2023-03-20T09:06:37;99713.16;;;9.33;100.00
30554;BME280;17335;50.720;7.452;2023-03-20T09:09:04;99702.78;;;9.40;100.00
30554;BME280;17335;50.720;7.452;2023-03-20T09:11:31;99696.63;;;9.28;100.00
30554;BME280;17335;50.720;7.452;2023-03-20T09:13:58;99707.31;;;9.39;100.00
30554;BME280;17335;50.720;7.452;2023-03-20T09:16:25;99704.94;;;9.57;100.00
30554;BME280;17335;50.720;7.452;2023-03-20T09:18:52;99707.75;;;9.56;100.00
30554;BME280;17335;50.720;7.452;2023-03-20T09:21:25;99699.09;;;9.52;100.00
30554;BME280;17335;50.720;7.452;2023-03-20T09:23:51;99708.06;;;9.63;100.00
30554;BME280;17335;50.720;7.452;2023-03-20T09:26:18;99700.19;;;9.50;100.00
30554;BME280;17335;50.720;7.452;2023-03-20T09:28:44;99701.84;;;9.62;100.00
30554;BME280;17335;50.720;7.452;2023-03-20T09:31:11;99703.88;;;9.70;100.00
30554;BME280;17335;50.720;7.452;2023-03-20T09:33:38;99710.75;;;9.84;100.00
30554;BME280;17335;50.720;7.452;2023-03-20T09:36:05;99701.13;;;10.02;100.00
30554;BME280;17335;50.720;7.452;2023-03-20T09:38:33;99701.44;;;10.09;100.00
30554;BME280;17335;50.720;7.452;2023-03-20T09:41:02;99705.88;;;10.20;100.00
30554;BME280;17335;50.720;7.452;2023-03-20T09:51:52;99685.03;;;10.33;100.00
30554;BME280;17335;50.720;7.452;2023-03-20T09:54:40;99682.69;;;10.40;100.00
30554;BME280;17335;50.720;7.452;2023-03-20T09:57:36;99684.44;;;10.29;100.00
30554;BME280;17335;50.720;7.452;2023-03-20T10:00:06;99673.47;;;10.32;100.00
30554;BME280;17335;50.720;7.452;2023-03-20T10:02:59;99678.63;;;10.45;100.00
30554;BME280;17335;50.720;7.452;2023-03-20T10:05:28;99679.63;;;10.54;100.00
30554;BME280;17335;50.720;7.452;2023-03-20T10:07:58;99669.03;;;10.53;100.00
30554;BME280;17335;50.720;7.452;2023-03-20T10:19:00;99679.50;;;10.56;100.00
30554;BME280;17335;50.720;7.452;2023-03-20T10:21:38;99676.53;;;10.59;100.00
30554;BME280;17335;50.720;7.452;2023-03-20T10:24:16;99679.91;;;10.51;100.00
30554;BME280;17335;50.720;7.452;2023-03-20T10:26:50;99678.88;;;10.42;100.00
30554;BME280;17335;50.720;7.452;2023-03-20T10:29:36;99673.78;;;10.39;100.00
30554;BME280;17335;50.720;7.452;2023-03-20T10:35:16;99671.44;;;10.25;100.00
30554;BME280;17335;50.720;7.452;2023-03-20T10:40:35;99666.78;;;10.58;100.00
30554;BME280;17335;50.720;7.452;2023-03-20T10:43:16;99660.16;;;10.52;100.00
30554;BME280;17335;50.720;7.452;2023-03-20T10:45:47;99657.59;;;10.50;100.00
30554;BME280;17335;50.720;7.452;2023-03-20T10:48:22;99651.41;;;10.60;100.00
30554;BME280;17335;50.720;7.452;2023-03-20T10:50:58;99648.75;;;10.69;100.00
30554;BME280;17335;50.720;7.452;2023-03-20T10:53:30;99647.00;;;10.59;100.00
30554;BME280;17335;50.720;7.452;2023-03-20T10:56:01;99646.19;;;10.68;100.00
30554;BME280;17335;50.720;7.452;2023-03-20T10:58:36;99652.72;;;10.85;100.00
30554;BME280;17335;50.720;7.452;2023-03-20T11:01:03;99650.59;;;10.98;100.00
30554;BME280;17335;50.720;7.452;2023-03-20T11:03:31;99644.84;;;11.13;100.00
30554;BME280;17335;50.720;7.452;2023-03-20T11:08:38;99647.50;;;11.32;100.00
30554;BME280;17335;50.720;7.452;2023-03-20T11:11:05;99636.22;;;11.09;100.00
30554;BME280;17335;50.720;7.452;2023-03-20T11:13:35;99634.06;;;11.03;100.00
30554;BME280;17335;50.720;7.452;2023-03-20T11:16:09;99639.31;;;11.24;100.00
30554;BME280;17335;50.720;7.452;2023-03-20T11:18:37;99641.41;;;11.20;100.00
30554;BME280;17335;50.720;7.452;2023-03-20T11:21:07;99628.13;;;11.29;100.00
30554;BME280;17335;50.720;7.452;2023-03-20T11:23:39;99634.91;;;11.33;100.00
30554;BME280;17335;50.720;7.452;2023-03-20T11:26:10;99639.72;;;11.29;100.00
30554;BME280;17335;50.720;7.452;2023-03-20T11:28:41;99640.16;;;11.15;100.00
30554;BME280;17335;50.720;7.452;2023-03-20T11:33:50;99637.06;;;11.19;100.00
30554;BME280;17335;50.720;7.452;2023-03-20T11:36:25;99634.78;;;10.95;100.00
30554;BME280;17335;50.720;7.452;2023-03-20T11:39:00;99628.56;;;10.85;100.00
30554;BME280;17335;50.720;7.452;2023-03-20T11:41:30;99623.16;;;10.75;100.00
30554;BME280;17335;50.720;7.452;2023-03-20T11:43:57;99624.72;;;10.68;100.00
30554;BME280;17335;50.720;7.452;2023-03-20T11:46:24;99625.25;;;10.62;100.00
30554;BME280;17335;50.720;7.452;2023-03-20T11:49:20;99615.09;;;10.56;100.00
30554;BME280;17335;50.720;7.452;2023-03-20T11:51:51;99618.19;;;10.61;100.00
30554;BME280;17335;50.720;7.452;2023-03-20T11:54:30;99613.81;;;10.60;100.00
30554;BME280;17335;50.720;7.452;2023-03-20T11:56:59;99616.22;;;10.63;100.00
30554;BME280;17335;50.720;7.452;2023-03-20T11:59:31;99618.34;;;10.69;100.00
30554;BME280;17335;50.720;7.452;2023-03-20T12:02:01;99610.00;;;10.72;100.00
30554;BME280;17335;50.720;7.452;2023-03-20T12:04:34;99617.34;;;10.70;100.00
30554;BME280;17335;50.720;7.452;2023-03-20T12:07:24;99611.44;;;10.76;100.00
30554;BME280;17335;50.720;7.452;2023-03-20T12:10:03;99600.81;;;10.65;100.00
30554;BME280;17335;50.720;7.452;2023-03-20T12:18:42;99596.03;;;10.78;100.00
30554;BME280;17335;50.720;7.452;2023-03-20T12:21:18;99593.06;;;10.81;100.00
30554;BME280;17335;50.720;7.452;2023-03-20T12:23:52;99593.34;;;10.78;100.00
30554;BME280;17335;50.720;7.452;2023-03-20T12:26:31;99589.09;;;10.76;100.00
30554;BME280;17335;50.720;7.452;2023-03-20T12:29:04;99590.81;;;10.86;100.00
30554;BME280;17335;50.720;7.452;2023-03-20T12:34:31;99590.50;;;10.89;100.00
30554;BME280;17335;50.720;7.452;2023-03-20T12:37:02;99587.09;;;10.78;100.00
30554;BME280;17335;50.720;7.452;2023-03-20T12:40:00;99583.56;;;10.67;100.00
30554;BME280;17335;50.720;7.452;2023-03-20T12:42:43;99592.75;;;10.65;100.00
30554;BME280;17335;50.720;7.452;2023-03-20T12:48:22;99580.78;;;10.28;100.00
30554;BME280;17335;50.720;7.452;2023-03-20T12:50:58;99590.47;;;10.10;100.00
30554;BME280;17335;50.720;7.452;2023-03-20T12:53:48;99585.38;;;10.07;100.00
30554;BME280;17335;50.720;7.452;2023-03-20T12:56:35;99579.78;;;10.20;100.00
30554;BME280;17335;50.720;7.452;2023-03-20T13:02:31;99570.97;;;10.39;100.00
30554;BME280;17335;50.720;7.452;2023-03-20T13:05:12;99567.56;;;10.37;100.00
30554;BME280;17335;50.720;7.452;2023-03-20T13:10:36;99568.41;;;10.37;100.00
30554;BME280;17335;50.720;7.452;2023-03-20T13:18:55;99546.97;;;10.57;100.00
30554;BME280;17335;50.720;7.452;2023-03-20T13:24:14;99549.38;;;10.60;100.00
30554;BME280;17335;50.720;7.452;2023-03-20T13:26:51;99548.94;;;10.55;100.00
30554;BME280;17335;50.720;7.452;2023-03-20T13:29:52;99541.03;;;10.63;100.00
30554;BME280;17335;50.720;7.452;2023-03-20T13:37:45;99548.94;;;10.55;100.00
30554;BME280;17335;50.720;7.452;2023-03-20T13:40:30;99546.00;;;10.58;100.00
30554;BME280;17335;50.720;7.452;2023-03-20T13:43:33;99539.88;;;10.36;100.00
30554;BME280;17335;50.720;7.452;2023-03-20T13:46:10;99557.97;;;10.44;100.00
30554;BME280;17335;50.720;7.452;2023-03-20T13:48:39;99543.00;;;10.41;100.00
30554;BME280;17335;50.720;7.452;2023-03-20T13:59:33;99534.25;;;10.59;100.00
30554;BME280;17335;50.720;7.452;2023-03-20T14:04:35;99537.66;;;10.51;100.00
30554;BME280;17335;50.720;7.452;2023-03-20T14:07:32;99534.81;;;10.53;100.00
30554;BME280;17335;50.720;7.452;2023-03-20T14:12:51;99526.63;;;10.64;100.00
30554;BME280;17335;50.720;7.452;2023-03-20T14:15:19;99520.69;;;10.60;100.00
30554;BME280;17335;50.720;7.452;2023-03-20T14:17:48;99515.59;;;10.47;100.00
30554;BME280;17335;50.720;7.452;2023-03-20T14:20:26;99509.97;;;10.50;100.00
30554;BME280;17335;50.720;7.452;2023-03-20T14:22:55;99520.13;;;10.57;100.00
30554;BME280;17335;50.720;7.452;2023-03-20T14:25:23;99520.97;;;10.57;100.00
30554;BME280;17335;50.720;7.452;2023-03-20T14:27:56;99520.41;;;10.54;100.00
30554;BME280;17335;50.720;7.452;2023-03-20T14:33:04;99518.69;;;10.62;100.00
30554;BME280;17335;50.720;7.452;2023-03-20T14:35:36;99527.19;;;10.67;100.00
30554;BME280;17335;50.720;7.452;2023-03-20T14:43:55;99520.41;;;10.73;100.00
30554;BME280;17335;50.720;7.452;2023-03-20T14:52:14;99532.56;;;10.77;100.00
30554;BME280;17335;50.720;7.452;2023-03-20T14:54:51;99528.19;;;10.76;100.00
30554;BME280;17335;50.720;7.452;2023-03-20T14:57:45;99530.47;;;10.71;100.00
30554;BME280;17335;50.720;7.452;2023-03-20T15:00:24;99525.66;;;10.75;100.00
30554;BME280;17335;50.720;7.452;2023-03-20T15:02:57;99521.97;;;10.85;100.00
30554;BME280;17335;50.720;7.452;2023-03-20T15:05:29;99515.31;;;10.89;100.00
30554;BME280;17335;50.720;7.452;2023-03-20T15:08:04;99513.22;;;10.74;100.00
30554;BME280;17335;50.720;7.452;2023-03-20T15:10:42;99517.47;;;10.76;100.00
30554;BME280;17335;50.720;7.452;2023-03-20T15:13:10;99514.03;;;10.74;100.00